sensor_id;sensor_type;location;lat;lon;timestamp;pressure;altitude;pressure_sealevel;temperature;humidity
16481;BME280;44634;54.110;12.138;2023-05-14T00:00:56;102068.81;;;15.11;100.00
16481;BME280;44634;54.110;12.138;2023-05-14T00:03:23;102067.25;;;15.09;100.00
16481;BME280;44634;54.110;12.138;2023-05-14T00:05:51;102066.88;;;15.23;100.00
16481;BME280;44634;54.110;12.138;2023-05-14T00:08:21;102059.50;;;14.96;100.00
16481;BME280;44634;54.110;12.138;2023-05-14T00:10:48;102061.19;;;15.47;100.00
16481;BME280;44634;54.110;12.138;2023-05-14T00:13:16;102060.72;;;15.63;100.00
16481;BME280;44634;54.110;12.138;2023-05-14T00:15:44;102051.97;;;15.11;100.00
16481;BME280;44634;54.110;12.138;2023-05-14T00:18:12;102044.50;;;15.45;100.00
16481;BME280;44634;54.110;12.138;2023-05-14T00:20:40;102053.53;;;15.13;100.00
16481;BME280;44634;54.110;12.138;2023-05-14T00:23:07;102033.06;;;15.14;100.00
16481;BME280;44634;54.110;12.138;2023-05-14T00:25:37;102028.66;;;15.03;100.00
16481;BME280;44634;54.110;12.138;2023-05-14T00:28:05;102028.38;;;14.97;100.00
16481;BME280;44634;54.110;12.138;2023-05-14T00:30:33;102014.50;;;14.63;100.00
16481;BME280;44634;54.110;12.138;2023-05-14T00:33:00;102000.72;;;14.57;100.00
16481;BME280;44634;54.110;12.138;2023-05-14T00:35:29;101992.94;;;14.66;100.00
16481;BME280;44634;54.110;12.138;2023-05-14T00:37:56;101994.88;;;15.04;100.00
16481;BME280;44634;54.110;12.138;2023-05-14T00:40:25;101998.47;;;15.24;100.00
16481;BME280;44634;54.110;12.138;2023-05-14T00:42:55;102002.09;;;15.23;100.00
16481;BME280;44634;54.110;12.138;2023-05-14T00:45:22;102004.72;;;15.72;100.00
16481;BME280;44634;54.110;12.138;2023-05-14T00:47:51;102012.72;;;15.63;100.00
16481;BME280;44634;54.110;12.138;2023-05-14T00:50:20;102003.53;;;15.36;100.00
16481;BME280;44634;54.110;12.138;2023-05-14T00:52:48;101999.66;;;14.70;100.00
16481;BME280;44634;54.110;12.138;2023-05-14T00:55:16;101960.53;;;14.61;100.00
16481;BME280;44634;54.110;12.138;2023-05-14T00:57:45;101954.38;;;14.39;100.00
16481;BME280;44634;54.110;12.138;2023-05-14T01:00:15;101940.75;;;14.53;100.00
16481;BME280;44634;54.110;12.138;2023-05-14T01:02:43;101940.22;;;14.59;100.00
16481;BME280;44634;54.110;12.138;2023-05-14T01:05:11;101943.75;;;14.70;100.00
16481;BME280;44634;54.110;12.138;2023-05-14T01:07:47;101947.72;;;14.85;100.00
16481;BME280;44634;54.110;12.138;2023-05-14T01:10:20;101927.97;;;14.87;100.00
16481;BME280;44634;54.110;12.138;2023-05-14T01:12:58;101919.44;;;14.02;100.00
16481;BME280;44634;54.110;12.138;2023-05-14T01:15:31;101892.06;;;14.42;100.00
16481;BME280;44634;54.110;12.138;2023-05-14T01:18:03;101917.78;;;14.52;100.00
16481;BME280;44634;54.110;12.138;2023-05-14T01:20:31;101917.66;;;14.54;100.00
16481;BME280;44634;54.110;12.138;2023-05-14T01:23:00;101917.66;;;14.54;100.00
16481;BME280;44634;54.110;12.138;2023-05-14T01:25:29;101919.88;;;14.28;100.00
16481;BME280;44634;54.110;12.138;2023-05-14T01:28:00;101917.69;;;14.43;100.00
16481;BME280;44634;54.110;12.138;2023-05-14T01:30:33;101904.47;;;14.32;100.00
16481;BME280;44634;54.110;12.138;2023-05-14T01:33:05;101940.66;;;14.13;100.00
16481;BME280;44634;54.110;12.138;2023-05-14T01:35:34;101951.31;;;13.92;100.00
16481;BME280;44634;54.110;12.138;2023-05-14T01:38:06;101943.47;;;13.91;100.00
16481;BME280;44634;54.110;12.138;2023-05-14T01:40:36;101951.50;;;13.80;100.00
16481;BME280;44634;54.110;12.138;2023-05-14T01:43:03;101936.50;;;13.99;100.00
16481;BME280;44634;54.110;12.138;2023-05-14T01:45:33;101938.34;;;14.20;100.00
16481;BME280;44634;54.110;12.138;2023-05-14T01:48:02;101936.84;;;13.85;100.00
16481;BME280;44634;54.110;12.138;2023-05-14T01:50:30;101941.47;;;14.04;100.00
16481;BME280;44634;54.110;12.138;2023-05-14T01:52:58;101949.28;;;13.85;100.00
16481;BME280;44634;54.110;12.138;2023-05-14T01:55:27;101927.91;;;14.07;100.00
16481;BME280;44634;54.110;12.138;2023-05-14T01:57:55;101923.88;;;13.71;100.00
16481;BME280;44634;54.110;12.138;2023-05-14T02:00:23;101931.16;;;13.90;100.00
16481;BME280;44634;54.110;12.138;2023-05-14T02:02:52;101942.53;;;14.02;100.00
16481;BME280;44634;54.110;12.138;2023-05-14T02:05:20;101926.84;;;14.19;100.00
16481;BME280;44634;54.110;12.138;2023-05-14T02:07:47;101924.13;;;14.10;100.00
16481;BME280;44634;54.110;12.138;2023-05-14T02:10:15;101924.53;;;13.84;100.00
16481;BME280;44634;54.110;12.138;2023-05-14T02:12:44;101915.44;;;13.87;100.00
16481;BME280;44634;54.110;12.138;2023-05-14T02:15:12;101901.78;;;13.91;100.00
16481;BME280;44634;54.110;12.138;2023-05-14T02:17:40;101898.56;;;13.97;100.00
16481;BME280;44634;54.110;12.138;2023-05-14T02:20:09;101880.59;;;14.11;100.00
16481;BME280;44634;54.110;12.138;2023-05-14T02:22:37;101913.28;;;14.22;100.00
16481;BME280;44634;54.110;12.138;2023-05-14T02:25:08;101906.06;;;14.13;100.00
16481;BME280;44634;54.110;12.138;2023-05-14T02:27:36;101893.22;;;13.67;100.00
16481;BME280;44634;54.110;12.138;2023-05-14T02:30:07;101894.63;;;13.50;100.00
16481;BME280;44634;54.110;12.138;2023-05-14T02:32:35;101897.16;;;13.52;100.00
16481;BME280;44634;54.110;12.138;2023-05-14T02:35:04;101912.50;;;13.48;100.00
16481;BME280;44634;54.110;12.138;2023-05-14T02:37:32;101872.41;;;13.51;100.00
16481;BME280;44634;54.110;12.138;2023-05-14T02:40:01;101865.19;;;13.42;100.00
16481;BME280;44634;54.110;12.138;2023-05-14T02:42:30;101864.97;;;13.96;100.00
16481;BME280;44634;54.110;12.138;2023-05-14T02:44:57;101888.56;;;14.11;100.00
16481;BME280;44634;54.110;12.138;2023-05-14T02:47:27;101890.81;;;13.85;100.00
16481;BME280;44634;54.110;12.138;2023-05-14T02:49:55;101877.63;;;13.83;100.00
16481;BME280;44634;54.110;12.138;2023-05-14T02:52:22;101869.88;;;13.91;100.00
16481;BME280;44634;54.110;12.138;2023-05-14T02:54:50;101901.50;;;13.94;100.00
16481;BME280;44634;54.110;12.138;2023-05-14T02:57:18;101872.56;;;13.38;100.00
16481;BME280;44634;54.110;12.138;2023-05-14T02:59:46;101832.50;;;13.72;100.00
16481;BME280;44634;54.110;12.138;2023-05-14T03:02:14;101857.00;;;13.96;100.00
16481;BME280;44634;54.110;12.138;2023-05-14T03:04:44;101866.31;;;13.60;100.00
16481;BME280;44634;54.110;12.138;2023-05-14T03:07:12;101870.44;;;13.53;100.00
16481;BME280;44634;54.110;12.138;2023-05-14T03:09:40;101872.72;;;13.58;100.00
16481;BME280;44634;54.110;12.138;2023-05-14T03:12:08;101901.25;;;13.24;100.00
16481;BME280;44634;54.110;12.138;2023-05-14T03:14:36;101881.13;;;13.42;100.00
16481;BME280;44634;54.110;12.138;2023-05-14T03:17:04;101884.09;;;13.28;100.00
16481;BME280;44634;54.110;12.138;2023-05-14T03:19:32;101893.53;;;13.09;100.00
16481;BME280;44634;54.110;12.138;2023-05-14T03:22:01;101884.44;;;13.55;100.00
16481;BME280;44634;54.110;12.138;2023-05-14T03:24:29;101899.53;;;13.55;100.00
16481;BME280;44634;54.110;12.138;2023-05-14T03:26:56;101894.97;;;13.14;100.00
16481;BME280;44634;54.110;12.138;2023-05-14T03:29:24;101878.06;;;13.15;100.00
16481;BME280;44634;54.110;12.138;2023-05-14T03:31:52;101863.09;;;13.25;100.00
16481;BME280;44634;54.110;12.138;2023-05-14T03:34:20;101873.72;;;13.14;100.00
16481;BME280;44634;54.110;12.138;2023-05-14T03:36:47;101868.63;;;13.54;100.00
16481;BME280;44634;54.110;12.138;2023-05-14T03:39:17;101886.53;;;13.20;100.00
16481;BME280;44634;54.110;12.138;2023-05-14T03:41:45;101863.88;;;13.04;100.00
16481;BME280;44634;54.110;12.138;2023-05-14T03:44:13;101876.03;;;13.07;100.00
16481;BME280;44634;54.110;12.138;2023-05-14T03:46:41;101865.91;;;13.01;100.00
16481;BME280;44634;54.110;12.138;2023-05-14T03:49:08;101886.16;;;13.24;100.00
16481;BME280;44634;54.110;12.138;2023-05-14T03:51:36;101875.38;;;13.58;100.00
16481;BME280;44634;54.110;12.138;2023-05-14T03:54:05;101904.41;;;13.50;100.00
16481;BME280;44634;54.110;12.138;2023-05-14T03:56:34;101890.00;;;13.31;100.00
16481;BME280;44634;54.110;12.138;2023-05-14T03:59:02;101888.94;;;13.76;100.00
16481;BME280;44634;54.110;12.138;2023-05-14T04:01:30;101896.03;;;13.33;100.00
16481;BME280;44634;54.110;12.138;2023-05-14T04:03:58;101871.41;;;13.31;100.00
16481;BME280;44634;54.110;12.138;2023-05-14T04:06:26;101878.16;;;13.98;100.00
16481;BME280;44634;54.110;12.138;2023-05-14T04:08:53;101895.00;;;14.08;100.00
16481;BME280;44634;54.110;12.138;2023-05-14T04:11:21;101906.25;;;13.91;100.00
16481;BME280;44634;54.110;12.138;2023-05-14T04:13:50;101885.56;;;14.25;100.00
16481;BME280;44634;54.110;12.138;2023-05-14T04:16:18;101887.31;;;13.63;100.00
16481;BME280;44634;54.110;12.138;2023-05-14T04:18:46;101885.56;;;13.94;100.00
16481;BME280;44634;54.110;12.138;2023-05-14T04:21:13;101845.28;;;13.57;100.00
16481;BME280;44634;54.110;12.138;2023-05-14T04:23:41;101829.16;;;13.70;100.00
16481;BME280;44634;54.110;12.138;2023-05-14T04:26:09;101806.09;;;13.50;100.00
16481;BME280;44634;54.110;12.138;2023-05-14T04:28:37;101809.19;;;14.06;100.00
16481;BME280;44634;54.110;12.138;2023-05-14T04:31:06;101825.41;;;14.03;100.00
16481;BME280;44634;54.110;12.138;2023-05-14T04:33:34;101831.91;;;14.50;100.00
16481;BME280;44634;54.110;12.138;2023-05-14T04:36:01;101854.09;;;14.70;100.00
16481;BME280;44634;54.110;12.138;2023-05-14T04:38:30;101837.16;;;14.41;100.00
16481;BME280;44634;54.110;12.138;2023-05-14T04:40:58;101842.13;;;14.45;100.00
16481;BME280;44634;54.110;12.138;2023-05-14T04:43:26;101842.16;;;14.24;100.00
16481;BME280;44634;54.110;12.138;2023-05-14T04:45:53;101833.81;;;14.39;100.00
16481;BME280;44634;54.110;12.138;2023-05-14T04:48:23;101826.94;;;14.76;100.00
16481;BME280;44634;54.110;12.138;2023-05-14T04:50:51;101843.72;;;14.67;100.00
16481;BME280;44634;54.110;12.138;2023-05-14T04:53:19;101850.22;;;15.03;100.00
16481;BME280;44634;54.110;12.138;2023-05-14T04:55:47;101847.69;;;15.11;100.00
16481;BME280;44634;54.110;12.138;2023-05-14T04:58:14;101867.72;;;14.96;100.00
16481;BME280;44634;54.110;12.138;2023-05-14T05:00:43;101864.94;;;15.07;100.00
16481;BME280;44634;54.110;12.138;2023-05-14T05:03:10;101870.69;;;15.70;100.00
16481;BME280;44634;54.110;12.138;2023-05-14T05:05:40;101889.50;;;15.50;100.00
16481;BME280;44634;54.110;12.138;2023-05-14T05:08:08;101901.69;;;15.33;100.00
16481;BME280;44634;54.110;12.138;2023-05-14T05:10:36;101892.31;;;15.67;100.00
16481;BME280;44634;54.110;12.138;2023-05-14T05:13:04;101893.97;;;15.59;100.00
16481;BME280;44634;54.110;12.138;2023-05-14T05:15:32;101881.50;;;15.69;100.00
16481;BME280;44634;54.110;12.138;2023-05-14T05:17:59;101899.72;;;15.83;100.00
16481;BME280;44634;54.110;12.138;2023-05-14T05:20:27;101908.41;;;16.42;100.00
16481;BME280;44634;54.110;12.138;2023-05-14T05:22:56;101923.44;;;16.43;100.00
16481;BME280;44634;54.110;12.138;2023-05-14T05:25:24;101924.34;;;16.88;100.00
16481;BME280;44634;54.110;12.138;2023-05-14T05:27:52;101931.88;;;16.75;100.00
16481;BME280;44634;54.110;12.138;2023-05-14T05:30:20;101938.78;;;17.23;100.00
16481;BME280;44634;54.110;12.138;2023-05-14T05:32:48;101956.06;;;17.01;100.00
16481;BME280;44634;54.110;12.138;2023-05-14T05:35:16;101955.22;;;17.01;100.00
16481;BME280;44634;54.110;12.138;2023-05-14T05:37:44;101954.50;;;16.81;100.00
16481;BME280;44634;54.110;12.138;2023-05-14T05:40:13;101946.81;;;17.41;100.00
16481;BME280;44634;54.110;12.138;2023-05-14T05:42:41;101963.22;;;17.64;100.00
16481;BME280;44634;54.110;12.138;2023-05-14T05:45:09;101959.53;;;17.65;100.00
16481;BME280;44634;54.110;12.138;2023-05-14T05:47:37;101972.88;;;18.18;100.00
16481;BME280;44634;54.110;12.138;2023-05-14T05:50:06;101971.44;;;17.80;100.00
16481;BME280;44634;54.110;12.138;2023-05-14T05:52:34;101978.38;;;18.17;100.00
16481;BME280;44634;54.110;12.138;2023-05-14T05:55:02;101973.97;;;18.33;100.00
16481;BME280;44634;54.110;12.138;2023-05-14T05:57:31;101978.63;;;18.23;100.00
16481;BME280;44634;54.110;12.138;2023-05-14T05:59:59;101977.72;;;18.14;100.00
16481;BME280;44634;54.110;12.138;2023-05-14T06:02:33;101977.44;;;19.28;100.00
16481;BME280;44634;54.110;12.138;2023-05-14T06:05:01;101976.22;;;19.14;100.00
16481;BME280;44634;54.110;12.138;2023-05-14T06:07:29;101971.44;;;18.92;100.00
16481;BME280;44634;54.110;12.138;2023-05-14T06:09:57;101976.97;;;18.82;100.00
16481;BME280;44634;54.110;12.138;2023-05-14T06:12:25;101984.78;;;18.76;100.00
16481;BME280;44634;54.110;12.138;2023-05-14T06:14:54;101974.13;;;19.42;100.00
16481;BME280;44634;54.110;12.138;2023-05-14T06:17:23;101976.59;;;19.27;100.00
16481;BME280;44634;54.110;12.138;2023-05-14T06:19:51;101982.31;;;19.24;100.00
16481;BME280;44634;54.110;12.138;2023-05-14T06:22:19;101973.38;;;19.16;100.00
16481;BME280;44634;54.110;12.138;2023-05-14T06:24:46;101973.94;;;19.44;100.00
16481;BME280;44634;54.110;12.138;2023-05-14T06:27:14;101984.06;;;19.90;100.00
16481;BME280;44634;54.110;12.138;2023-05-14T06:29:42;101974.81;;;20.17;100.00
16481;BME280;44634;54.110;12.138;2023-05-14T06:32:11;101983.56;;;19.71;100.00
16481;BME280;44634;54.110;12.138;2023-05-14T06:34:41;101976.84;;;20.15;100.00
16481;BME280;44634;54.110;12.138;2023-05-14T06:37:10;101974.19;;;19.99;100.00
16481;BME280;44634;54.110;12.138;2023-05-14T06:39:38;101975.00;;;19.67;100.00
16481;BME280;44634;54.110;12.138;2023-05-14T06:42:09;101973.69;;;19.87;100.00
16481;BME280;44634;54.110;12.138;2023-05-14T06:44:37;101969.69;;;20.71;93.50
16481;BME280;44634;54.110;12.138;2023-05-14T06:47:05;101972.88;;;20.67;90.94
16481;BME280;44634;54.110;12.138;2023-05-14T06:49:35;101982.00;;;20.33;91.29
16481;BME280;44634;54.110;12.138;2023-05-14T06:52:03;101976.09;;;20.62;82.74
16481;BME280;44634;54.110;12.138;2023-05-14T06:54:31;101977.41;;;20.74;83.75
16481;BME280;44634;54.110;12.138;2023-05-14T06:56:59;101975.84;;;20.88;83.83
16481;BME280;44634;54.110;12.138;2023-05-14T06:59:26;101972.31;;;21.19;82.41
16481;BME280;44634;54.110;12.138;2023-05-14T07:01:54;101976.00;;;21.49;82.66
16481;BME280;44634;54.110;12.138;2023-05-14T07:04:22;101974.06;;;21.03;87.75
16481;BME280;44634;54.110;12.138;2023-05-14T07:06:51;101971.06;;;21.98;81.93
16481;BME280;44634;54.110;12.138;2023-05-14T07:09:19;101967.34;;;22.37;77.79
16481;BME280;44634;54.110;12.138;2023-05-14T07:11:47;101976.63;;;22.19;77.25
16481;BME280;44634;54.110;12.138;2023-05-14T07:14:15;101965.84;;;22.78;76.30
16481;BME280;44634;54.110;12.138;2023-05-14T07:16:43;101961.28;;;22.79;71.06
16481;BME280;44634;54.110;12.138;2023-05-14T07:19:12;101956.75;;;22.35;77.32
16481;BME280;44634;54.110;12.138;2023-05-14T07:21:40;101968.56;;;21.59;67.04
16481;BME280;44634;54.110;12.138;2023-05-14T07:24:11;101964.19;;;22.33;62.21
16481;BME280;44634;54.110;12.138;2023-05-14T07:26:39;101968.09;;;21.93;61.70
16481;BME280;44634;54.110;12.138;2023-05-14T07:29:07;101949.69;;;22.34;59.52
16481;BME280;44634;54.110;12.138;2023-05-14T07:31:34;101962.16;;;21.97;63.43
16481;BME280;44634;54.110;12.138;2023-05-14T07:34:02;101961.19;;;21.76;63.66
16481;BME280;44634;54.110;12.138;2023-05-14T07:36:30;101955.53;;;22.67;57.06
16481;BME280;44634;54.110;12.138;2023-05-14T07:38:58;101946.19;;;23.57;53.51
16481;BME280;44634;54.110;12.138;2023-05-14T07:41:27;101943.03;;;23.10;51.23
16481;BME280;44634;54.110;12.138;2023-05-14T07:43:55;101933.47;;;23.93;50.87
16481;BME280;44634;54.110;12.138;2023-05-14T07:46:23;101933.94;;;23.76;52.13
16481;BME280;44634;54.110;12.138;2023-05-14T07:48:51;101936.00;;;23.52;49.09
16481;BME280;44634;54.110;12.138;2023-05-14T07:51:19;101927.06;;;23.30;45.43
16481;BME280;44634;54.110;12.138;2023-05-14T07:53:46;101937.22;;;22.77;43.44
16481;BME280;44634;54.110;12.138;2023-05-14T07:56:14;101923.00;;;23.41;41.35
16481;BME280;44634;54.110;12.138;2023-05-14T07:58:43;101925.00;;;23.32;41.25
16481;BME280;44634;54.110;12.138;2023-05-14T08:01:11;101928.56;;;22.82;41.77
16481;BME280;44634;54.110;12.138;2023-05-14T08:03:39;101919.53;;;23.47;40.39
16481;BME280;44634;54.110;12.138;2023-05-14T08:06:07;101919.91;;;23.01;40.87
16481;BME280;44634;54.110;12.138;2023-05-14T08:08:35;101916.06;;;23.32;41.42
16481;BME280;44634;54.110;12.138;2023-05-14T08:11:02;101906.81;;;24.46;39.00
16481;BME280;44634;54.110;12.138;2023-05-14T08:13:31;101910.63;;;25.19;35.19
16481;BME280;44634;54.110;12.138;2023-05-14T08:16:00;101905.88;;;25.68;33.80
16481;BME280;44634;54.110;12.138;2023-05-14T08:18:28;101906.66;;;26.15;34.14
16481;BME280;44634;54.110;12.138;2023-05-14T08:20:56;101909.22;;;24.76;33.34
16481;BME280;44634;54.110;12.138;2023-05-14T08:23:23;101904.56;;;24.28;33.76
16481;BME280;44634;54.110;12.138;2023-05-14T08:25:51;101902.94;;;25.49;32.43
16481;BME280;44634;54.110;12.138;2023-05-14T08:28:19;101898.34;;;25.30;33.00
16481;BME280;44634;54.110;12.138;2023-05-14T08:30:47;101898.41;;;24.82;33.59
16481;BME280;44634;54.110;12.138;2023-05-14T08:33:16;101898.50;;;24.54;34.16
16481;BME280;44634;54.110;12.138;2023-05-14T08:35:44;101890.34;;;24.96;36.43
16481;BME280;44634;54.110;12.138;2023-05-14T08:38:12;101903.72;;;25.10;34.66
16481;BME280;44634;54.110;12.138;2023-05-14T08:40:40;101888.16;;;25.65;34.20
16481;BME280;44634;54.110;12.138;2023-05-14T08:43:09;101894.84;;;25.83;34.25
16481;BME280;44634;54.110;12.138;2023-05-14T08:45:38;101887.31;;;25.58;34.47
16481;BME280;44634;54.110;12.138;2023-05-14T08:48:09;101886.88;;;26.01;34.62
16481;BME280;44634;54.110;12.138;2023-05-14T08:50:43;101881.69;;;25.40;36.10
16481;BME280;44634;54.110;12.138;2023-05-14T08:53:10;101884.16;;;26.14;35.71
16481;BME280;44634;54.110;12.138;2023-05-14T08:55:38;101877.72;;;25.56;36.49
16481;BME280;44634;54.110;12.138;2023-05-14T08:58:06;101882.53;;;25.54;36.28
16481;BME280;44634;54.110;12.138;2023-05-14T09:00:34;101878.78;;;25.55;36.03
16481;BME280;44634;54.110;12.138;2023-05-14T09:03:03;101877.59;;;24.83;36.88
16481;BME280;44634;54.110;12.138;2023-05-14T09:05:32;101878.59;;;25.69;36.64
16481;BME280;44634;54.110;12.138;2023-05-14T09:08:01;101876.28;;;25.46;35.10
16481;BME280;44634;54.110;12.138;2023-05-14T09:10:29;101867.16;;;26.45;33.26
16481;BME280;44634;54.110;12.138;2023-05-14T09:12:57;101860.50;;;26.86;33.22
16481;BME280;44634;54.110;12.138;2023-05-14T09:15:26;101861.88;;;27.08;33.66
16481;BME280;44634;54.110;12.138;2023-05-14T09:17:55;101865.69;;;26.94;32.92
16481;BME280;44634;54.110;12.138;2023-05-14T09:20:24;101864.13;;;26.73;33.93
16481;BME280;44634;54.110;12.138;2023-05-14T09:22:54;101856.50;;;26.95;32.94
16481;BME280;44634;54.110;12.138;2023-05-14T09:25:26;101845.28;;;26.85;33.17
16481;BME280;44634;54.110;12.138;2023-05-14T09:27:57;101854.38;;;26.65;33.39
16481;BME280;44634;54.110;12.138;2023-05-14T09:30:25;101857.16;;;26.46;32.93
16481;BME280;44634;54.110;12.138;2023-05-14T09:32:53;101848.28;;;26.19;33.79
16481;BME280;44634;54.110;12.138;2023-05-14T09:35:23;101843.22;;;26.80;32.83
16481;BME280;44634;54.110;12.138;2023-05-14T09:37:52;101832.78;;;27.40;32.51
16481;BME280;44634;54.110;12.138;2023-05-14T09:40:22;101836.75;;;27.88;32.01
16481;BME280;44634;54.110;12.138;2023-05-14T09:42:52;101829.34;;;27.51;33.44
16481;BME280;44634;54.110;12.138;2023-05-14T09:45:20;101830.31;;;27.64;32.44
16481;BME280;44634;54.110;12.138;2023-05-14T09:47:48;101823.13;;;27.19;32.68
16481;BME280;44634;54.110;12.138;2023-05-14T09:50:15;101823.84;;;27.33;31.60
16481;BME280;44634;54.110;12.138;2023-05-14T09:52:43;101819.88;;;27.36;30.13
16481;BME280;44634;54.110;12.138;2023-05-14T09:55:11;101825.03;;;27.69;28.83
16481;BME280;44634;54.110;12.138;2023-05-14T09:57:39;101829.72;;;28.16;27.95
16481;BME280;44634;54.110;12.138;2023-05-14T10:00:10;101825.03;;;27.87;27.80
16481;BME280;44634;54.110;12.138;2023-05-14T10:02:39;101835.56;;;27.02;26.19
16481;BME280;44634;54.110;12.138;2023-05-14T10:05:08;101830.34;;;27.07;25.28
16481;BME280;44634;54.110;12.138;2023-05-14T10:07:39;101823.31;;;26.93;26.18
16481;BME280;44634;54.110;12.138;2023-05-14T10:10:13;101813.03;;;27.95;27.01
16481;BME280;44634;54.110;12.138;2023-05-14T10:12:43;101823.13;;;27.44;27.27
16481;BME280;44634;54.110;12.138;2023-05-14T10:15:16;101801.66;;;27.61;27.93
16481;BME280;44634;54.110;12.138;2023-05-14T10:17:48;101794.38;;;29.18;26.92
16481;BME280;44634;54.110;12.138;2023-05-14T10:20:19;101804.00;;;29.09;27.11
16481;BME280;44634;54.110;12.138;2023-05-14T10:22:49;101797.88;;;29.37;26.54
16481;BME280;44634;54.110;12.138;2023-05-14T10:25:17;101785.69;;;30.03;26.07
16481;BME280;44634;54.110;12.138;2023-05-14T10:27:46;101782.75;;;30.45;25.47
16481;BME280;44634;54.110;12.138;2023-05-14T10:30:15;101799.72;;;28.71;25.29
16481;BME280;44634;54.110;12.138;2023-05-14T10:32:43;101779.72;;;29.43;25.51
16481;BME280;44634;54.110;12.138;2023-05-14T10:35:15;101781.31;;;28.55;27.04
16481;BME280;44634;54.110;12.138;2023-05-14T10:37:43;101792.75;;;27.29;27.66
16481;BME280;44634;54.110;12.138;2023-05-14T10:40:12;101785.06;;;28.06;27.12
16481;BME280;44634;54.110;12.138;2023-05-14T10:42:41;101781.78;;;27.61;27.73
16481;BME280;44634;54.110;12.138;2023-05-14T10:45:11;101768.44;;;29.04;26.91
16481;BME280;44634;54.110;12.138;2023-05-14T10:47:41;101768.22;;;27.61;29.28
16481;BME280;44634;54.110;12.138;2023-05-14T10:50:12;101771.31;;;29.09;26.35
16481;BME280;44634;54.110;12.138;2023-05-14T10:52:41;101761.47;;;29.31;25.30
16481;BME280;44634;54.110;12.138;2023-05-14T10:55:12;101759.78;;;30.29;25.56
16481;BME280;44634;54.110;12.138;2023-05-14T10:57:42;101747.56;;;31.66;23.62
16481;BME280;44634;54.110;12.138;2023-05-14T11:00:11;101745.66;;;30.94;24.43
16481;BME280;44634;54.110;12.138;2023-05-14T11:02:42;101746.47;;;31.45;24.51
16481;BME280;44634;54.110;12.138;2023-05-14T11:05:12;101758.06;;;29.59;23.96
16481;BME280;44634;54.110;12.138;2023-05-14T11:07:43;101755.06;;;28.61;26.08
16481;BME280;44634;54.110;12.138;2023-05-14T11:10:12;101758.09;;;28.23;26.09
16481;BME280;44634;54.110;12.138;2023-05-14T11:12:42;101760.00;;;27.49;26.21
16481;BME280;44634;54.110;12.138;2023-05-14T11:15:11;101755.25;;;28.48;24.70
16481;BME280;44634;54.110;12.138;2023-05-14T11:17:42;101748.56;;;27.40;26.01
16481;BME280;44634;54.110;12.138;2023-05-14T11:20:11;101749.97;;;29.06;25.22
16481;BME280;44634;54.110;12.138;2023-05-14T11:22:40;101724.47;;;29.82;23.95
16481;BME280;44634;54.110;12.138;2023-05-14T11:25:09;101717.56;;;29.51;25.41
16481;BME280;44634;54.110;12.138;2023-05-14T11:27:41;101740.69;;;28.42;25.68
16481;BME280;44634;54.110;12.138;2023-05-14T11:30:14;101732.38;;;28.07;28.48
16481;BME280;44634;54.110;12.138;2023-05-14T11:32:45;101715.06;;;29.90;27.24
16481;BME280;44634;54.110;12.138;2023-05-14T11:35:14;101715.91;;;28.50;28.51
16481;BME280;44634;54.110;12.138;2023-05-14T11:37:47;101717.06;;;29.19;27.85
16481;BME280;44634;54.110;12.138;2023-05-14T11:40:16;101708.06;;;28.42;28.13
16481;BME280;44634;54.110;12.138;2023-05-14T11:42:44;101710.41;;;29.50;27.93
16481;BME280;44634;54.110;12.138;2023-05-14T11:45:12;101718.81;;;28.37;28.15
16481;BME280;44634;54.110;12.138;2023-05-14T11:47:41;101712.84;;;26.68;29.90
16481;BME280;44634;54.110;12.138;2023-05-14T11:50:10;101715.09;;;26.72;30.73
16481;BME280;44634;54.110;12.138;2023-05-14T11:52:39;101718.09;;;26.88;30.42
16481;BME280;44634;54.110;12.138;2023-05-14T11:55:10;101721.88;;;26.18;30.50
16481;BME280;44634;54.110;12.138;2023-05-14T11:57:38;101721.13;;;26.49;29.01
16481;BME280;44634;54.110;12.138;2023-05-14T12:00:07;101717.88;;;26.65;29.92
16481;BME280;44634;54.110;12.138;2023-05-14T12:02:38;101709.22;;;27.06;29.57
16481;BME280;44634;54.110;12.138;2023-05-14T12:05:07;101707.75;;;27.47;29.23
16481;BME280;44634;54.110;12.138;2023-05-14T12:07:38;101710.88;;;26.51;31.56
16481;BME280;44634;54.110;12.138;2023-05-14T12:10:07;101702.81;;;27.19;30.66
16481;BME280;44634;54.110;12.138;2023-05-14T12:12:38;101711.25;;;26.86;29.30
16481;BME280;44634;54.110;12.138;2023-05-14T12:15:10;101707.19;;;26.70;29.83
16481;BME280;44634;54.110;12.138;2023-05-14T12:17:38;101701.72;;;27.02;30.55
16481;BME280;44634;54.110;12.138;2023-05-14T12:20:08;101702.63;;;27.20;30.48
16481;BME280;44634;54.110;12.138;2023-05-14T12:22:40;101711.63;;;26.26;31.50
16481;BME280;44634;54.110;12.138;2023-05-14T12:25:10;101703.28;;;26.91;31.32
16481;BME280;44634;54.110;12.138;2023-05-14T12:27:39;101701.75;;;27.63;28.87
16481;BME280;44634;54.110;12.138;2023-05-14T12:30:08;101688.31;;;28.47;28.02
16481;BME280;44634;54.110;12.138;2023-05-14T12:32:47;101689.28;;;27.74;29.37
16481;BME280;44634;54.110;12.138;2023-05-14T12:35:17;101687.28;;;27.63;29.34
16481;BME280;44634;54.110;12.138;2023-05-14T12:37:46;101685.59;;;26.82;29.29
16481;BME280;44634;54.110;12.138;2023-05-14T12:40:14;101698.66;;;26.35;28.19
16481;BME280;44634;54.110;12.138;2023-05-14T12:42:42;101683.16;;;26.74;28.51